createdAt,value
2018-03-15T00:00:10.826Z,94.00
2018-03-15T00:01:09.701Z,94.00
2018-03-15T00:02:09.600Z,93.96
2018-03-15T00:03:09.683Z,94.00
2018-03-15T00:04:11.944Z,93.97
2018-03-15T00:05:09.523Z,93.95
2018-03-15T00:06:09.642Z,93.96
2018-03-15T00:07:09.642Z,94.01
2018-03-15T00:08:09.652Z,94.03
2018-03-15T00:09:09.662Z,93.99
2018-03-15T00:10:09.577Z,93.95
2018-03-15T00:11:09.686Z,93.91
2018-03-15T00:12:09.695Z,93.84
2018-03-15T00:13:09.599Z,93.84
2018-03-15T00:14:09.701Z,93.88
2018-03-15T00:15:11.820Z,93.87
2018-03-15T00:16:09.613Z,93.87
2018-03-15T00:17:09.760Z,93.91
2018-03-15T00:18:09.730Z,93.93
2018-03-15T00:19:09.638Z,93.81
2018-03-15T00:20:09.541Z,93.63
2018-03-15T00:21:09.650Z,93.53
2018-03-15T00:22:09.658Z,93.48
2018-03-15T00:23:09.561Z,93.52
2018-03-15T00:24:09.673Z,93.59
2018-03-15T00:25:09.681Z,93.79
2018-03-15T00:26:09.586Z,93.88
2018-03-15T00:27:09.695Z,93.88
2018-03-15T00:28:09.607Z,93.95
2018-03-15T00:29:09.610Z,94.05
2018-03-15T00:30:09.686Z,94.06
2018-03-15T00:31:10.984Z,94.08
2018-03-15T00:32:09.630Z,94.08
2018-03-15T00:33:09.640Z,94.17
2018-03-15T00:34:09.646Z,94.23
2018-03-15T00:35:09.652Z,94.30
2018-03-15T00:36:09.553Z,94.21
2018-03-15T00:37:09.666Z,94.24
2018-03-15T00:38:09.671Z,94.31
2018-03-15T00:39:09.578Z,94.31
2018-03-15T00:40:09.686Z,94.33
2018-03-15T00:41:09.578Z,94.31
2018-03-15T00:42:09.599Z,94.31
2018-03-15T00:43:09.709Z,94.32
2018-03-15T00:44:09.608Z,94.33
2018-03-15T00:45:09.732Z,94.37
2018-03-15T00:46:09.730Z,94.36
2018-03-15T00:47:09.618Z,94.35
2018-03-15T00:48:09.647Z,94.36
2018-03-15T00:49:09.659Z,94.41
2018-03-15T00:50:09.657Z,94.43
2018-03-15T00:51:09.666Z,94.41
2018-03-15T00:52:09.564Z,94.44
2018-03-15T00:53:09.580Z,94.51
2018-03-15T00:54:09.686Z,94.49
2018-03-15T00:55:09.594Z,94.48
2018-03-15T00:56:09.702Z,94.50
2018-03-15T00:57:09.606Z,94.52
2018-03-15T00:58:12.441Z,94.50
2018-03-15T00:59:09.626Z,94.50
2018-03-15T01:00:10.859Z,94.51
2018-03-15T01:01:09.639Z,94.48
2018-03-15T01:02:09.650Z,94.46
2018-03-15T01:03:09.650Z,94.44
2018-03-15T01:04:09.653Z,94.41
2018-03-15T01:05:09.587Z,94.40
2018-03-15T01:06:09.574Z,94.38
2018-03-15T01:07:09.678Z,94.36
2018-03-15T01:08:09.582Z,94.33
2018-03-15T01:09:09.576Z,94.32
2018-03-15T01:10:09.704Z,94.32
2018-03-15T01:11:09.607Z,94.27
2018-03-15T01:12:09.617Z,94.24
2018-03-15T01:13:09.722Z,94.27
2018-03-15T01:14:09.627Z,94.25
2018-03-15T01:15:09.838Z,94.22
2018-03-15T01:16:09.642Z,94.19
2018-03-15T01:17:09.653Z,94.18
2018-03-15T01:18:09.662Z,94.15
2018-03-15T01:19:09.661Z,94.15
2018-03-15T01:20:09.673Z,94.13
2018-03-15T01:21:09.687Z,94.07
2018-03-15T01:22:09.686Z,94.06
2018-03-15T01:23:09.692Z,94.04
2018-03-15T01:24:09.706Z,94.03
2018-03-15T01:25:09.707Z,93.98
2018-03-15T01:26:09.610Z,93.96
2018-03-15T01:27:09.621Z,93.92
2018-03-15T01:28:09.729Z,93.91
2018-03-15T01:29:09.737Z,93.91
2018-03-15T01:30:09.750Z,93.94
2018-03-15T01:31:09.714Z,93.95
2018-03-15T01:32:09.655Z,93.78
2018-03-15T01:33:09.662Z,93.52
2018-03-15T01:34:09.682Z,93.39
2018-03-15T01:35:09.618Z,93.34
2018-03-15T01:36:09.686Z,93.32
2018-03-15T01:37:09.591Z,93.47
2018-03-15T01:38:09.697Z,93.59
2018-03-15T01:39:09.709Z,93.65
2018-03-15T01:40:09.723Z,93.67
2018-03-15T01:41:09.725Z,93.69
2018-03-15T01:42:09.734Z,93.68
2018-03-15T01:43:09.639Z,93.68
2018-03-15T01:44:09.647Z,93.64
2018-03-15T01:45:09.757Z,93.30
2018-03-15T01:46:09.613Z,93.16
2018-03-15T01:47:09.773Z,93.29
2018-03-15T01:48:09.781Z,93.45
2018-03-15T01:49:09.678Z,93.50
2018-03-15T01:50:09.689Z,93.50
2018-03-15T01:51:09.690Z,93.36
2018-03-15T01:52:09.592Z,93.32
2018-03-15T01:53:09.717Z,93.31
2018-03-15T01:54:09.713Z,93.40
2018-03-15T01:55:09.717Z,93.47
2018-03-15T01:56:09.741Z,93.47
2018-03-15T01:57:09.737Z,93.42
2018-03-15T01:58:09.742Z,93.43
2018-03-15T01:59:09.649Z,93.46
2018-03-15T02:00:10.894Z,93.43
2018-03-15T02:01:09.646Z,93.44
2018-03-15T02:02:09.669Z,93.42
2018-03-15T02:03:10.250Z,93.43
2018-03-15T02:04:09.851Z,93.40
2018-03-15T02:05:09.802Z,93.40
2018-03-15T02:06:09.758Z,93.38
2018-03-15T02:07:09.703Z,93.33
2018-03-15T02:08:09.709Z,93.39
2018-03-15T02:09:09.726Z,93.41
2018-03-15T02:10:09.729Z,93.40
2018-03-15T02:11:09.738Z,93.40
2018-03-15T02:12:09.745Z,93.42
2018-03-15T02:13:09.758Z,93.46
2018-03-15T02:14:09.759Z,93.51
2018-03-15T02:15:09.658Z,93.51
2018-03-15T02:16:09.677Z,93.51
2018-03-15T02:17:09.776Z,93.55
2018-03-15T02:18:09.683Z,93.60
2018-03-15T02:19:09.694Z,93.61
2018-03-15T02:20:09.693Z,93.64
2018-03-15T02:21:09.506Z,93.64
2018-03-15T02:22:09.721Z,93.59
2018-03-15T02:23:09.717Z,93.58
2018-03-15T02:24:09.725Z,93.62
2018-03-15T02:25:09.739Z,93.63
2018-03-15T02:26:09.742Z,93.58
2018-03-15T02:27:09.746Z,93.58
2018-03-15T02:28:09.653Z,93.66
2018-03-15T02:29:09.761Z,93.67
2018-03-15T02:30:09.773Z,93.68
2018-03-15T02:31:09.674Z,93.66
2018-03-15T02:32:09.781Z,93.65
2018-03-15T02:33:09.794Z,93.66
2018-03-15T02:34:09.701Z,93.67
2018-03-15T02:35:09.710Z,93.52
2018-03-15T02:36:09.711Z,93.54
2018-03-15T02:37:09.718Z,93.46
2018-03-15T02:38:09.731Z,93.51
2018-03-15T02:39:09.730Z,93.53
2018-03-15T02:40:09.739Z,93.31
2018-03-15T02:41:09.748Z,93.16
2018-03-15T02:42:09.641Z,93.18
2018-03-15T02:43:09.762Z,93.28
2018-03-15T02:44:09.778Z,93.30
2018-03-15T02:45:09.778Z,93.20
2018-03-15T02:46:09.786Z,93.06
2018-03-15T02:47:09.686Z,93.06
2018-03-15T02:48:09.801Z,93.06
2018-03-15T02:49:09.706Z,93.13
2018-03-15T02:50:09.730Z,93.13
2018-03-15T02:51:09.725Z,93.15
2018-03-15T02:52:09.722Z,93.13
2018-03-15T02:53:09.734Z,93.03
2018-03-15T02:54:09.746Z,93.13
2018-03-15T02:55:09.651Z,93.18
2018-03-15T02:56:09.755Z,93.07
2018-03-15T02:57:09.767Z,93.08
2018-03-15T02:58:09.769Z,93.09
2018-03-15T02:59:09.780Z,93.08
2018-03-15T03:00:10.910Z,93.06
2018-03-15T03:01:09.794Z,92.88
2018-03-15T03:02:09.798Z,92.70
2018-03-15T03:03:09.829Z,92.71
2018-03-15T03:04:09.814Z,92.78
2018-03-15T03:05:09.722Z,92.87
2018-03-15T03:06:09.729Z,92.96
2018-03-15T03:07:09.742Z,93.02
2018-03-15T03:08:09.647Z,93.04
2018-03-15T03:09:09.755Z,93.09
2018-03-15T03:10:09.761Z,93.02
2018-03-15T03:11:09.762Z,92.92
2018-03-15T03:12:09.665Z,92.81
2018-03-15T03:13:09.782Z,92.70
2018-03-15T03:14:09.780Z,92.67
2018-03-15T03:15:09.794Z,92.70
2018-03-15T03:16:09.706Z,92.75
2018-03-15T03:17:09.801Z,92.78
2018-03-15T03:18:09.812Z,92.88
2018-03-15T03:19:09.713Z,92.85
2018-03-15T03:20:09.729Z,92.85
2018-03-15T03:21:09.731Z,92.89
2018-03-15T03:22:09.627Z,92.85
2018-03-15T03:23:09.749Z,92.83
2018-03-15T03:24:09.653Z,92.80
2018-03-15T03:25:09.758Z,92.81
2018-03-15T03:26:09.767Z,92.80
2018-03-15T03:27:09.669Z,92.77
2018-03-15T03:28:09.794Z,92.78
2018-03-15T03:29:09.784Z,92.78
2018-03-15T03:30:09.809Z,92.78
2018-03-15T03:31:09.803Z,92.77
2018-03-15T03:32:09.811Z,92.72
2018-03-15T03:33:09.822Z,92.65
2018-03-15T03:34:09.622Z,92.74
2018-03-15T03:35:09.730Z,92.79
2018-03-15T03:36:11.253Z,92.67
2018-03-15T03:37:09.749Z,92.62
2018-03-15T03:38:09.653Z,92.59
2018-03-15T03:39:09.758Z,92.65
2018-03-15T03:40:09.778Z,92.58
2018-03-15T03:41:09.674Z,92.61
2018-03-15T03:42:09.785Z,92.59
2018-03-15T03:43:09.803Z,92.55
2018-03-15T03:44:09.793Z,92.49
2018-03-15T03:45:09.801Z,92.54
2018-03-15T03:46:09.816Z,92.52
2018-03-15T03:47:09.814Z,92.50
2018-03-15T03:48:09.821Z,92.44
2018-03-15T03:49:09.726Z,92.40
2018-03-15T03:50:09.634Z,92.44
2018-03-15T03:51:09.740Z,92.43
2018-03-15T03:52:09.755Z,92.25
2018-03-15T03:53:09.657Z,92.17
2018-03-15T03:54:09.766Z,92.16
2018-03-15T03:55:12.555Z,92.13
2018-03-15T03:56:09.785Z,92.10
2018-03-15T03:57:09.690Z,91.95
2018-03-15T03:58:09.687Z,91.85
2018-03-15T03:59:09.815Z,91.87
2018-03-15T04:00:10.830Z,91.80
2018-03-15T04:01:09.820Z,91.88
2018-03-15T04:02:09.725Z,91.78
2018-03-15T04:03:09.830Z,91.72
2018-03-15T04:04:09.680Z,91.78
2018-03-15T04:05:09.742Z,91.73
2018-03-15T04:06:09.853Z,91.74
2018-03-15T04:07:09.662Z,91.67
2018-03-15T04:08:09.766Z,91.70
2018-03-15T04:09:09.674Z,91.79
2018-03-15T04:10:09.778Z,91.73
2018-03-15T04:11:09.789Z,91.80
2018-03-15T04:12:09.799Z,91.80
2018-03-15T04:13:09.802Z,91.77
2018-03-15T04:14:09.810Z,91.87
2018-03-15T04:15:09.820Z,91.88
2018-03-15T04:16:09.822Z,91.87
2018-03-15T04:17:09.835Z,91.83
2018-03-15T04:18:09.732Z,91.89
2018-03-15T04:19:09.843Z,92.04
2018-03-15T04:20:09.649Z,92.14
2018-03-15T04:21:09.759Z,92.14
2018-03-15T04:22:09.667Z,92.20
2018-03-15T04:23:09.773Z,92.24
2018-03-15T04:24:09.778Z,92.11
2018-03-15T04:25:09.686Z,92.03
2018-03-15T04:26:09.791Z,91.92
2018-03-15T04:27:09.802Z,91.94
2018-03-15T04:28:09.909Z,91.91
2018-03-15T04:29:09.814Z,91.82
2018-03-15T04:30:09.839Z,91.83
2018-03-15T04:31:09.837Z,91.77
2018-03-15T04:32:09.857Z,91.73
2018-03-15T04:33:09.843Z,91.76
2018-03-15T04:34:09.755Z,91.88
2018-03-15T04:35:09.657Z,91.72
2018-03-15T04:36:09.665Z,91.64
2018-03-15T04:37:09.775Z,91.52
2018-03-15T04:38:09.682Z,91.45
2018-03-15T04:39:09.787Z,91.53
2018-03-15T04:40:09.795Z,91.74
2018-03-15T04:41:09.808Z,91.87
2018-03-15T04:42:09.810Z,91.97
2018-03-15T04:43:09.814Z,92.01
2018-03-15T04:44:09.831Z,92.09
2018-03-15T04:45:09.826Z,92.09
2018-03-15T04:46:09.838Z,92.12
2018-03-15T04:47:09.853Z,92.16
2018-03-15T04:48:09.844Z,92.19
2018-03-15T04:49:09.857Z,92.18
2018-03-15T04:50:09.763Z,92.15
2018-03-15T04:51:09.669Z,92.14
2018-03-15T04:52:09.667Z,92.08
2018-03-15T04:53:09.781Z,92.05
2018-03-15T04:54:09.690Z,92.08
2018-03-15T04:55:09.683Z,92.08
2018-03-15T04:56:09.806Z,92.09
2018-03-15T04:57:09.822Z,92.06
2018-03-15T04:58:09.726Z,92.09
2018-03-15T04:59:11.765Z,92.08
2018-03-15T05:00:10.857Z,92.13
2018-03-15T05:01:09.842Z,92.12
2018-03-15T05:02:09.370Z,92.14
2018-03-15T05:03:09.862Z,92.12
2018-03-15T05:04:09.870Z,92.13
2018-03-15T05:05:11.609Z,91.99
2018-03-15T05:06:09.778Z,91.93
2018-03-15T05:07:09.682Z,91.83
2018-03-15T05:08:09.790Z,91.73
2018-03-15T05:09:09.798Z,91.77
2018-03-15T05:10:09.702Z,91.82
2018-03-15T05:11:09.810Z,91.85
2018-03-15T05:12:09.822Z,91.81
2018-03-15T05:13:09.831Z,91.74
2018-03-15T05:14:09.833Z,91.73
2018-03-15T05:15:09.843Z,91.71
2018-03-15T05:16:09.858Z,91.62
2018-03-15T05:17:09.861Z,91.59
2018-03-15T05:18:09.867Z,91.52
2018-03-15T05:19:09.879Z,91.28
2018-03-15T05:20:09.674Z,91.27
2018-03-15T05:21:09.692Z,91.38
2018-03-15T05:22:09.670Z,91.12
2018-03-15T05:23:09.693Z,90.97
2018-03-15T05:24:09.807Z,90.95
2018-03-15T05:25:09.845Z,90.96
2018-03-15T05:26:09.721Z,90.96
2018-03-15T05:27:09.826Z,91.03
2018-03-15T05:28:09.834Z,91.06
2018-03-15T05:29:09.729Z,90.99
2018-03-15T05:30:09.751Z,91.02
2018-03-15T05:31:09.879Z,91.01
2018-03-15T05:32:09.870Z,91.00
2018-03-15T05:33:09.875Z,90.99
2018-03-15T05:34:09.881Z,90.98
2018-03-15T05:35:09.889Z,90.90
2018-03-15T05:36:09.889Z,90.88
2018-03-15T05:37:09.702Z,90.88
2018-03-15T05:38:09.802Z,90.86
2018-03-15T05:39:09.707Z,90.77
2018-03-15T05:40:09.722Z,90.80
2018-03-15T05:41:09.825Z,90.77
2018-03-15T05:42:09.730Z,90.74
2018-03-15T05:43:09.842Z,90.67
2018-03-15T05:44:09.850Z,90.42
2018-03-15T05:45:09.863Z,90.40
2018-03-15T05:46:09.862Z,90.40
2018-03-15T05:47:09.866Z,90.39
2018-03-15T05:48:09.884Z,90.39
2018-03-15T05:49:09.898Z,90.33
2018-03-15T05:50:09.691Z,90.14
2018-03-15T05:51:09.793Z,90.08
2018-03-15T05:52:09.706Z,90.20
2018-03-15T05:53:09.714Z,90.12
2018-03-15T05:54:09.818Z,90.01
2018-03-15T05:55:09.722Z,90.02
2018-03-15T05:56:09.733Z,89.95
2018-03-15T05:57:09.841Z,90.02
2018-03-15T05:58:09.745Z,89.84
2018-03-15T05:59:09.859Z,89.70
2018-03-15T06:00:10.896Z,89.70
2018-03-15T06:01:09.913Z,89.70
2018-03-15T06:02:09.877Z,89.84
2018-03-15T06:03:09.890Z,89.90
2018-03-15T06:04:09.898Z,89.75
2018-03-15T06:05:09.697Z,89.30
2018-03-15T06:06:09.704Z,89.05
2018-03-15T06:07:09.705Z,88.71
2018-03-15T06:08:09.713Z,88.64
2018-03-15T06:09:09.729Z,88.72
2018-03-15T06:10:09.831Z,88.35
2018-03-15T06:11:09.733Z,88.31
2018-03-15T06:12:09.845Z,88.45
2018-03-15T06:13:09.854Z,88.58
2018-03-15T06:14:09.753Z,88.64
2018-03-15T06:15:09.870Z,88.64
2018-03-15T06:16:09.773Z,88.92
2018-03-15T06:17:09.885Z,88.73
2018-03-15T06:18:09.793Z,88.27
2018-03-15T06:19:09.898Z,88.32
2018-03-15T06:20:09.806Z,88.06
2018-03-15T06:21:09.706Z,87.99
2018-03-15T06:22:09.718Z,87.90
2018-03-15T06:23:09.826Z,87.94
2018-03-15T06:24:09.764Z,87.90
2018-03-15T06:25:09.707Z,87.53
2018-03-15T06:26:09.845Z,87.38
2018-03-15T06:27:09.750Z,87.37
2018-03-15T06:28:09.963Z,87.36
2018-03-15T06:29:09.775Z,87.37
2018-03-15T06:30:09.770Z,87.37
2018-03-15T06:31:09.879Z,87.47
2018-03-15T06:32:09.890Z,87.58
2018-03-15T06:33:09.907Z,87.80
2018-03-15T06:34:09.901Z,87.67
2018-03-15T06:35:09.910Z,87.65
2018-03-15T06:36:09.926Z,86.69
2018-03-15T06:37:09.718Z,86.16
2018-03-15T06:38:09.733Z,85.55
2018-03-15T06:39:09.733Z,86.08
2018-03-15T06:40:09.742Z,86.38
2018-03-15T06:41:09.754Z,86.00
2018-03-15T06:42:09.754Z,85.27
2018-03-15T06:43:09.763Z,85.03
2018-03-15T06:44:09.775Z,85.46
2018-03-15T06:45:09.878Z,85.28
2018-03-15T06:46:09.782Z,85.44
2018-03-15T06:47:09.894Z,86.13
2018-03-15T06:48:09.802Z,84.52
2018-03-15T06:49:09.917Z,84.13
2018-03-15T06:50:09.918Z,84.12
2018-03-15T06:51:09.922Z,84.18
2018-03-15T06:52:09.783Z,84.09
2018-03-15T06:53:09.730Z,84.38
2018-03-15T06:54:09.750Z,84.53
2018-03-15T06:55:09.757Z,84.69
2018-03-15T06:56:09.753Z,84.56
2018-03-15T06:57:09.770Z,84.44
2018-03-15T06:58:09.871Z,84.49
2018-03-15T06:59:09.779Z,84.68
2018-03-15T07:00:10.910Z,84.42
2018-03-15T07:01:09.802Z,84.40
2018-03-15T07:02:09.798Z,83.58
2018-03-15T07:03:09.909Z,83.85
2018-03-15T07:04:09.913Z,84.35
2018-03-15T07:05:09.930Z,83.89
2018-03-15T07:06:09.930Z,83.33
2018-03-15T07:07:09.940Z,83.56
2018-03-15T07:08:09.739Z,82.10
2018-03-15T07:09:09.950Z,81.39
2018-03-15T07:10:09.853Z,81.15
2018-03-15T07:11:09.761Z,80.67
2018-03-15T07:12:09.764Z,81.04
2018-03-15T07:13:09.782Z,79.89
2018-03-15T07:14:09.890Z,80.43
2018-03-15T07:15:09.790Z,79.72
2018-03-15T07:16:09.801Z,79.72
2018-03-15T07:17:09.909Z,79.57
2018-03-15T07:18:09.814Z,79.20
2018-03-15T07:19:09.922Z,77.75
2018-03-15T07:20:09.946Z,78.38
2018-03-15T07:21:09.942Z,78.69
2018-03-15T07:22:09.943Z,77.71
2018-03-15T07:23:09.953Z,78.27
2018-03-15T07:24:09.755Z,78.22
2018-03-15T07:25:09.967Z,76.33
2018-03-15T07:26:09.772Z,76.70
2018-03-15T07:27:09.778Z,76.82
2018-03-15T07:28:09.785Z,77.45
2018-03-15T07:29:09.998Z,76.86
2018-03-15T07:30:09.903Z,76.62
2018-03-15T07:31:09.811Z,76.87
2018-03-15T07:32:09.920Z,77.28
2018-03-15T07:33:09.927Z,77.54
2018-03-15T07:34:09.833Z,76.58
2018-03-15T07:35:09.938Z,75.79
2018-03-15T07:36:09.942Z,75.84
2018-03-15T07:37:09.959Z,76.29
2018-03-15T07:38:09.958Z,76.02
2018-03-15T07:39:09.961Z,76.70
2018-03-15T07:40:09.770Z,76.92
2018-03-15T07:41:09.738Z,77.06
2018-03-15T07:42:09.793Z,77.54
2018-03-15T07:43:09.785Z,78.75
2018-03-15T07:44:09.906Z,77.91
2018-03-15T07:45:09.820Z,76.40
2018-03-15T07:46:09.810Z,76.59
2018-03-15T07:47:09.818Z,76.01
2018-03-15T07:48:09.829Z,73.53
2018-03-15T07:49:09.951Z,74.29
2018-03-15T07:50:10.054Z,74.58
2018-03-15T07:51:09.853Z,75.09
2018-03-15T07:52:09.976Z,74.47
2018-03-15T07:53:09.968Z,74.73
2018-03-15T07:54:09.969Z,74.78
2018-03-15T07:55:10.893Z,73.84
2018-03-15T07:56:09.783Z,71.96
2018-03-15T07:57:09.786Z,72.73
2018-03-15T07:58:09.802Z,72.60
2018-03-15T07:59:09.801Z,71.94
2018-03-15T08:00:11.146Z,72.91
2018-03-15T08:01:09.822Z,71.25
2018-03-15T08:02:09.858Z,70.81
2018-03-15T08:03:09.829Z,71.84
2018-03-15T08:04:09.845Z,70.80
2018-03-15T08:05:09.951Z,71.13
2018-03-15T08:06:09.825Z,72.71
2018-03-15T08:07:09.842Z,72.95
2018-03-15T08:08:11.393Z,74.04
2018-03-15T08:09:09.983Z,73.25
2018-03-15T08:10:09.890Z,74.12
2018-03-15T08:11:09.990Z,75.04
2018-03-15T08:12:09.793Z,74.10
2018-03-15T08:13:09.797Z,75.00
2018-03-15T08:14:09.813Z,75.47
2018-03-15T08:15:09.819Z,76.04
2018-03-15T08:16:09.822Z,76.14
2018-03-15T08:17:09.838Z,77.19
2018-03-15T08:18:09.941Z,77.56
2018-03-15T08:19:09.845Z,76.78
2018-03-15T08:20:09.825Z,76.23
2018-03-15T08:21:09.961Z,76.69
2018-03-15T08:22:09.857Z,77.12
2018-03-15T08:23:09.781Z,76.83
2018-03-15T08:24:09.987Z,75.82
2018-03-15T08:25:09.998Z,76.06
2018-03-15T08:26:09.998Z,76.59
2018-03-15T08:27:10.003Z,77.20
2018-03-15T08:28:09.809Z,77.41
2018-03-15T08:29:09.814Z,77.90
2018-03-15T08:30:09.829Z,78.05
2018-03-15T08:31:09.817Z,77.97
2018-03-15T08:32:09.838Z,77.73
2018-03-15T08:33:09.858Z,78.00
2018-03-15T08:34:09.958Z,76.93
2018-03-15T08:35:09.856Z,76.32
2018-03-15T08:36:12.425Z,76.31
2018-03-15T08:37:09.974Z,76.51
2018-03-15T08:38:09.485Z,75.62
2018-03-15T08:39:09.994Z,74.80
2018-03-15T08:40:10.000Z,75.52
2018-03-15T08:41:10.010Z,75.28
2018-03-15T08:42:10.015Z,75.36
2018-03-15T08:43:10.018Z,75.16
2018-03-15T08:44:09.822Z,74.49
2018-03-15T08:45:09.835Z,75.05
2018-03-15T08:46:09.842Z,75.68
2018-03-15T08:47:09.945Z,76.81
2018-03-15T08:48:09.850Z,76.41
2018-03-15T08:49:09.863Z,75.43
2018-03-15T08:50:09.970Z,75.06
2018-03-15T08:51:09.869Z,74.99
2018-03-15T08:52:09.891Z,74.76
2018-03-15T08:53:09.897Z,74.40
2018-03-15T08:54:09.882Z,73.80
2018-03-15T08:55:09.911Z,73.45
2018-03-15T08:56:09.914Z,73.57
2018-03-15T08:57:09.923Z,73.44
2018-03-15T08:58:09.938Z,73.17
2018-03-15T08:59:12.565Z,72.04
2018-03-15T09:00:11.197Z,72.62
2018-03-15T09:01:09.843Z,72.91
2018-03-15T09:02:09.878Z,71.89
2018-03-15T09:03:09.963Z,72.55
2018-03-15T09:04:09.866Z,71.59
2018-03-15T09:05:09.951Z,71.00
2018-03-15T09:06:09.986Z,71.46
2018-03-15T09:07:09.984Z,72.52
2018-03-15T09:08:09.901Z,72.83
2018-03-15T09:09:10.033Z,72.18
2018-03-15T09:10:10.018Z,72.58
2018-03-15T09:11:10.018Z,72.30
2018-03-15T09:12:10.022Z,72.27
2018-03-15T09:13:10.036Z,72.18
2018-03-15T09:14:10.042Z,72.99
2018-03-15T09:15:10.047Z,72.69
2018-03-15T09:16:09.849Z,71.79
2018-03-15T09:17:09.857Z,72.75
2018-03-15T09:18:09.869Z,72.27
2018-03-15T09:19:09.869Z,72.45
2018-03-15T09:20:09.878Z,71.87
2018-03-15T09:21:09.895Z,73.44
2018-03-15T09:22:09.995Z,72.64
2018-03-15T09:23:09.922Z,73.16
2018-03-15T09:24:10.010Z,72.55
2018-03-15T09:25:10.018Z,72.67
2018-03-15T09:26:09.935Z,73.26
2018-03-15T09:27:11.080Z,72.86
2018-03-15T09:28:09.987Z,72.42
2018-03-15T09:29:10.048Z,73.00
2018-03-15T09:30:10.054Z,72.94
2018-03-15T09:31:10.058Z,72.96
2018-03-15T09:32:09.865Z,72.54
2018-03-15T09:33:09.869Z,73.12
2018-03-15T09:34:09.882Z,72.91
2018-03-15T09:35:09.886Z,71.97
2018-03-15T09:36:09.889Z,72.39
2018-03-15T09:37:09.902Z,72.56
2018-03-15T09:38:10.006Z,71.58
2018-03-15T09:39:09.913Z,72.19
2018-03-15T09:40:09.924Z,70.93
2018-03-15T09:41:10.025Z,72.12
2018-03-15T09:42:10.043Z,72.79
2018-03-15T09:43:10.048Z,70.79
2018-03-15T09:44:12.855Z,71.48
2018-03-15T09:45:10.065Z,70.24
2018-03-15T09:46:10.147Z,70.73
2018-03-15T09:47:10.078Z,70.07
2018-03-15T09:48:09.874Z,70.78
2018-03-15T09:49:09.882Z,70.20
2018-03-15T09:50:09.499Z,70.36
2018-03-15T09:51:10.029Z,71.11
2018-03-15T09:52:09.911Z,70.99
2018-03-15T09:53:09.918Z,70.73
2018-03-15T09:54:10.029Z,70.00
2018-03-15T09:55:09.924Z,68.52
2018-03-15T09:56:09.909Z,69.18
2018-03-15T09:57:09.946Z,69.01
2018-03-15T09:58:09.957Z,67.34
2018-03-15T09:59:09.970Z,68.75
2018-03-15T10:00:11.191Z,68.99
2018-03-15T10:01:10.078Z,68.45
2018-03-15T10:02:10.076Z,69.13
2018-03-15T10:03:10.086Z,68.46
2018-03-15T10:04:09.889Z,68.91
2018-03-15T10:05:09.898Z,68.74
2018-03-15T10:06:09.909Z,69.94
2018-03-15T10:07:09.911Z,69.66
2018-03-15T10:08:09.920Z,68.59
2018-03-15T10:09:09.933Z,68.36
2018-03-15T10:10:10.039Z,69.33
2018-03-15T10:11:09.940Z,67.14
2018-03-15T10:12:09.952Z,67.38
2018-03-15T10:13:10.072Z,66.86
2018-03-15T10:14:10.070Z,66.64
2018-03-15T10:15:09.980Z,66.37
2018-03-15T10:16:10.079Z,65.36
2018-03-15T10:17:10.093Z,67.28
2018-03-15T10:18:10.098Z,68.14
2018-03-15T10:19:10.098Z,64.69
2018-03-15T10:20:09.906Z,66.70
2018-03-15T10:21:09.914Z,65.03
2018-03-15T10:22:09.953Z,64.70
2018-03-15T10:23:09.930Z,64.81
2018-03-15T10:24:10.062Z,64.40
2018-03-15T10:25:13.769Z,64.53
2018-03-15T10:26:10.056Z,64.79
2018-03-15T10:27:09.960Z,64.98
2018-03-15T10:28:09.955Z,66.94
2018-03-15T10:29:09.977Z,65.64
2018-03-15T10:30:10.081Z,64.83
2018-03-15T10:31:10.095Z,67.18
2018-03-15T10:32:10.103Z,66.37
2018-03-15T10:33:10.110Z,66.00
2018-03-15T10:34:10.106Z,66.88
2018-03-15T10:35:10.113Z,67.89
2018-03-15T10:36:09.918Z,68.37
2018-03-15T10:37:10.038Z,67.72
2018-03-15T10:38:09.946Z,64.45
2018-03-15T10:39:09.939Z,64.53
2018-03-15T10:40:09.946Z,64.70
2018-03-15T10:41:09.962Z,65.05
2018-03-15T10:42:09.959Z,65.58
2018-03-15T10:43:09.970Z,65.37
2018-03-15T10:44:09.981Z,66.15
2018-03-15T10:45:10.086Z,63.49
2018-03-15T10:46:09.994Z,62.37
2018-03-15T10:47:10.102Z,64.08
2018-03-15T10:48:10.115Z,63.94
2018-03-15T10:49:10.126Z,64.11
2018-03-15T10:50:10.123Z,65.17
2018-03-15T10:51:10.018Z,63.65
2018-03-15T10:52:09.934Z,62.95
2018-03-15T10:53:09.942Z,62.61
2018-03-15T10:54:09.948Z,63.52
2018-03-15T10:55:09.955Z,62.95
2018-03-15T10:56:09.929Z,63.05
2018-03-15T10:57:09.973Z,63.91
2018-03-15T10:58:10.073Z,62.79
2018-03-15T10:59:09.981Z,64.20
2018-03-15T11:00:11.113Z,63.75
2018-03-15T11:01:10.100Z,64.72
2018-03-15T11:02:10.115Z,63.12
2018-03-15T11:03:10.115Z,64.23
2018-03-15T11:04:12.886Z,63.86
2018-03-15T11:05:10.133Z,62.52
2018-03-15T11:06:10.137Z,62.50
2018-03-15T11:07:10.143Z,62.15
2018-03-15T11:08:09.945Z,63.35
2018-03-15T11:09:09.949Z,65.71
2018-03-15T11:10:09.964Z,62.34
2018-03-15T11:11:09.969Z,63.71
2018-03-15T11:12:10.030Z,63.39
2018-03-15T11:13:09.989Z,63.92
2018-03-15T11:14:09.985Z,62.47
2018-03-15T11:15:09.993Z,63.38
2018-03-15T11:16:10.105Z,62.06
2018-03-15T11:17:10.112Z,62.66
2018-03-15T11:18:10.073Z,62.88
2018-03-15T11:19:10.126Z,63.58
2018-03-15T11:20:10.035Z,64.25
2018-03-15T11:21:10.043Z,60.96
2018-03-15T11:22:10.048Z,61.96
2018-03-15T11:23:10.046Z,61.75
2018-03-15T11:24:09.958Z,62.78
2018-03-15T11:25:09.966Z,61.85
2018-03-15T11:26:09.978Z,61.41
2018-03-15T11:27:09.836Z,60.99
2018-03-15T11:28:09.962Z,60.76
2018-03-15T11:29:10.003Z,59.96
2018-03-15T11:30:10.008Z,59.24
2018-03-15T11:31:10.014Z,61.49
2018-03-15T11:32:12.954Z,60.89
2018-03-15T11:33:10.126Z,60.85
2018-03-15T11:34:10.137Z,59.56
2018-03-15T11:35:09.938Z,60.89
2018-03-15T11:36:11.133Z,60.00
2018-03-15T11:37:10.161Z,60.58
2018-03-15T11:38:10.166Z,58.63
2018-03-15T11:39:10.170Z,60.24
2018-03-15T11:40:09.975Z,60.11
2018-03-15T11:41:09.982Z,61.40
2018-03-15T11:42:09.996Z,61.95
2018-03-15T11:43:10.099Z,59.74
2018-03-15T11:44:10.002Z,60.50
2018-03-15T11:45:10.024Z,61.09
2018-03-15T11:46:10.126Z,59.27
2018-03-15T11:47:10.026Z,61.00
2018-03-15T11:48:10.137Z,60.25
2018-03-15T11:49:10.147Z,60.11
2018-03-15T11:50:10.045Z,60.22
2018-03-15T11:51:10.065Z,60.06
2018-03-15T11:52:10.677Z,58.63
2018-03-15T11:53:10.178Z,58.94
2018-03-15T11:54:10.087Z,60.22
2018-03-15T11:55:10.186Z,59.63
2018-03-15T11:56:09.988Z,58.33
2018-03-15T11:57:09.996Z,60.04
2018-03-15T11:58:10.011Z,61.24
2018-03-15T11:59:10.005Z,59.74
2018-03-15T12:00:11.350Z,62.80
2018-03-15T12:01:10.029Z,62.89
2018-03-15T12:02:10.135Z,62.67
2018-03-15T12:03:10.151Z,63.68
2018-03-15T12:04:10.146Z,63.53
2018-03-15T12:05:10.153Z,64.60
2018-03-15T12:06:10.166Z,63.09
2018-03-15T12:07:10.168Z,65.27
2018-03-15T12:08:10.173Z,63.82
2018-03-15T12:09:10.190Z,65.40
2018-03-15T12:10:10.192Z,65.71
2018-03-15T12:11:10.198Z,68.47
2018-03-15T12:12:09.998Z,70.51
2018-03-15T12:13:10.006Z,68.84
2018-03-15T12:14:10.016Z,67.84
2018-03-15T12:15:10.026Z,69.27
2018-03-15T12:16:10.031Z,67.58
2018-03-15T12:17:10.042Z,68.79
2018-03-15T12:18:10.145Z,69.72
2018-03-15T12:19:10.051Z,67.14
2018-03-15T12:20:10.070Z,69.43
2018-03-15T12:21:10.171Z,68.23
2018-03-15T12:22:12.735Z,68.71
2018-03-15T12:23:10.090Z,70.46
2018-03-15T12:24:10.100Z,68.63
2018-03-15T12:25:10.206Z,70.61
2018-03-15T12:26:10.202Z,69.49
2018-03-15T12:27:10.015Z,69.51
2018-03-15T12:28:10.015Z,70.60
2018-03-15T12:29:10.021Z,69.85
2018-03-15T12:30:10.033Z,70.33
2018-03-15T12:31:10.039Z,70.99
2018-03-15T12:32:10.046Z,69.99
2018-03-15T12:33:10.057Z,68.36
2018-03-15T12:34:10.161Z,69.67
2018-03-15T12:35:10.065Z,69.97
2018-03-15T12:36:10.175Z,70.38
2018-03-15T12:37:10.182Z,72.63
2018-03-15T12:38:10.085Z,72.76
2018-03-15T12:39:10.198Z,71.07
2018-03-15T12:40:10.206Z,73.75
2018-03-15T12:41:10.219Z,75.60
2018-03-15T12:42:10.218Z,72.44
2018-03-15T12:43:10.031Z,73.68
2018-03-15T12:44:10.027Z,72.25
2018-03-15T12:45:10.038Z,73.18
2018-03-15T12:46:10.145Z,71.37
2018-03-15T12:47:10.155Z,72.74
2018-03-15T12:48:10.058Z,72.19
2018-03-15T12:49:10.070Z,71.58
2018-03-15T12:50:10.174Z,75.08
2018-03-15T12:51:10.079Z,73.85
2018-03-15T12:52:10.090Z,72.71